Time,TemperatureF,DewpointF,PressureIn,WindDirection,WindDirectionDegrees,WindSpeedMPH,WindSpeedGustMPH,Humidity,HourlyPrecipIn,Conditions,Clouds,dailyrainin,SoftwareType,DateUTC
2013-05-13 00:05:00,51.4,32.0,29.92,ESE,118,5.0,7.0,48,0.00,,,0.00,weatherlink.com 1.10,2013-05-13 05:05:00,
2013-05-13 00:20:00,51.2,31.0,29.92,ESE,113,6.0,6.0,46,0.00,,,0.00,weatherlink.com 1.10,2013-05-13 05:20:00,
2013-05-13 00:35:00,50.3,32.0,29.92,SE,135,5.0,6.0,49,0.00,,,0.00,weatherlink.com 1.10,2013-05-13 05:35:00,
2013-05-13 00:50:00,49.5,32.0,29.92,ESE,108,5.0,6.0,51,0.00,,,0.00,weatherlink.com 1.10,2013-05-13 05:50:00,
2013-05-13 01:05:00,50.4,31.0,29.91,ESE,115,6.0,6.0,48,0.00,,,0.00,weatherlink.com 1.10,2013-05-13 06:05:00,
2013-05-13 01:20:00,50.1,31.0,29.91,SE,128,5.0,7.0,49,0.00,,,0.00,weatherlink.com 1.10,2013-05-13 06:20:00,
2013-05-13 01:35:00,49.2,33.0,29.91,SE,129,4.0,5.0,53,0.00,,,0.00,weatherlink.com 1.10,2013-05-13 06:35:00,
2013-05-13 01:50:00,49.5,33.0,29.91,ESE,122,4.0,6.0,53,0.00,,,0.00,weatherlink.com 1.10,2013-05-13 06:50:00,
2013-05-13 02:05:00,50.2,34.0,29.91,SE,134,4.0,5.0,54,0.00,,,0.00,weatherlink.com 1.10,2013-05-13 07:05:00,
2013-05-13 02:20:00,50.3,34.0,29.91,SE,128,3.0,5.0,55,0.00,,,0.00,weatherlink.com 1.10,2013-05-13 07:20:00,
2013-05-13 02:35:00,50.3,36.0,29.91,SE,129,4.0,4.0,58,0.00,,,0.00,weatherlink.com 1.10,2013-05-13 07:35:00,
2013-05-13 02:50:00,50.3,36.0,29.90,SE,134,3.0,4.0,58,0.00,,,0.00,weatherlink.com 1.10,2013-05-13 07:50:00,
2013-05-13 03:05:00,50.1,37.0,29.90,SSE,166,1.0,3.0,60,0.00,,,0.00,weatherlink.com 1.10,2013-05-13 08:05:00,
2013-05-13 03:20:00,50.5,38.0,29.89,SSE,155,3.0,4.0,62,0.00,,,0.00,weatherlink.com 1.10,2013-05-13 08:20:00,
2013-05-13 03:35:00,50.8,38.0,29.90,SSW,193,2.0,5.0,63,0.00,,,0.00,weatherlink.com 1.10,2013-05-13 08:35:00,
2013-05-13 03:50:00,50.8,38.0,29.90,ESE,117,0.0,3.0,63,0.00,,,0.00,weatherlink.com 1.10,2013-05-13 08:50:00,
2013-05-13 04:05:00,50.3,39.0,29.89,SSE,160,3.0,4.0,66,0.00,,,0.00,weatherlink.com 1.10,2013-05-13 09:05:00,
2013-05-13 04:20:00,50.0,39.0,29.89,SE,142,5.0,6.0,67,0.00,,,0.00,weatherlink.com 1.10,2013-05-13 09:20:00,
2013-05-13 04:35:00,50.2,40.0,29.88,SSW,204,2.0,5.0,67,0.00,,,0.00,weatherlink.com 1.10,2013-05-13 09:35:00,
2013-05-13 04:50:00,50.5,39.0,29.88,South,174,2.0,4.0,66,0.00,,,0.00,weatherlink.com 1.10,2013-05-13 09:50:00,
2013-05-13 05:05:00,50.3,40.0,29.88,SE,141,0.0,4.0,67,0.00,,,0.00,weatherlink.com 1.10,2013-05-13 10:05:00,
2013-05-13 05:20:00,49.6,39.0,29.87,SSE,157,0.0,2.0,68,0.00,,,0.00,weatherlink.com 1.10,2013-05-13 10:20:00,
2013-05-13 05:35:00,48.7,39.0,29.87,SSE,168,1.0,3.0,70,0.00,,,0.00,weatherlink.com 1.10,2013-05-13 10:35:00,
2013-05-13 05:50:00,48.0,39.0,29.88,SE,134,0.0,1.0,72,0.00,,,0.00,weatherlink.com 1.10,2013-05-13 10:50:00,
2013-05-13 06:05:00,47.3,40.0,29.87,East,89,2.0,3.0,75,0.00,,,0.00,weatherlink.com 1.10,2013-05-13 11:05:00,
2013-05-13 06:20:00,47.0,40.0,29.88,ESE,103,4.0,4.0,76,0.00,,,0.00,weatherlink.com 1.10,2013-05-13 11:20:00,
2013-05-13 06:35:00,46.9,40.0,29.88,ESE,107,4.0,5.0,77,0.00,,,0.00,weatherlink.com 1.10,2013-05-13 11:35:00,
2013-05-13 06:50:00,48.0,40.0,29.88,SE,142,4.0,4.0,75,0.00,,,0.00,weatherlink.com 1.10,2013-05-13 11:50:00,
2013-05-13 07:05:00,48.6,41.0,29.88,ESE,117,2.0,4.0,74,0.00,,,0.00,weatherlink.com 1.10,2013-05-13 12:05:00,
2013-05-13 07:20:00,48.6,41.0,29.88,SE,124,1.0,3.0,76,0.00,,,0.00,weatherlink.com 1.10,2013-05-13 12:20:00,
2013-05-13 07:35:00,49.6,42.0,29.89,SSE,163,1.0,3.0,75,0.00,,,0.00,weatherlink.com 1.10,2013-05-13 12:35:00,
2013-05-13 07:50:00,53.9,43.0,29.89,SSE,162,5.0,6.0,68,0.00,,,0.00,weatherlink.com 1.10,2013-05-13 12:50:00,
2013-05-13 08:06:00,56.7,44.0,29.89,SSE,166,3.0,7.0,63,0.00,,,0.00,weatherlink.com 1.10,2013-05-13 13:06:00,
2013-05-13 08:21:00,58.5,44.0,29.88,South,173,6.0,12.0,59,0.00,,,0.00,weatherlink.com 1.10,2013-05-13 13:21:00,
2013-05-13 08:36:00,59.8,45.0,29.88,SSW,204,8.0,12.0,58,0.00,,,0.00,weatherlink.com 1.10,2013-05-13 13:36:00,
2013-05-13 08:51:00,61.1,45.0,29.88,SE,127,8.0,13.0,56,0.00,,,0.00,weatherlink.com 1.10,2013-05-13 13:51:00,
2013-05-13 09:06:00,62.1,45.0,29.86,SSW,212,8.0,18.0,53,0.00,,,0.00,weatherlink.com 1.10,2013-05-13 14:06:00,
2013-05-13 09:21:00,63.0,45.0,29.86,South,169,4.0,20.0,52,0.00,,,0.00,weatherlink.com 1.10,2013-05-13 14:21:00,
2013-05-13 09:36:00,64.5,45.0,29.86,South,176,10.0,18.0,50,0.00,,,0.00,weatherlink.com 1.10,2013-05-13 14:36:00,
2013-05-13 09:51:00,65.4,45.0,29.85,SSE,156,9.0,18.0,48,0.00,,,0.00,weatherlink.com 1.10,2013-05-13 14:51:00,
2013-05-13 10:06:00,66.5,46.0,29.85,SSE,158,15.0,18.0,48,0.00,,,0.00,weatherlink.com 1.10,2013-05-13 15:06:00,
2013-05-13 10:21:00,67.9,46.0,29.85,SSE,159,9.0,16.0,46,0.00,,,0.00,weatherlink.com 1.10,2013-05-13 15:21:00,
2013-05-13 10:36:00,68.9,47.0,29.84,South,177,5.0,17.0,46,0.00,,,0.00,weatherlink.com 1.10,2013-05-13 15:36:00,
2013-05-13 10:51:00,69.4,46.0,29.84,SSE,150,6.0,15.0,44,0.00,,,0.00,weatherlink.com 1.10,2013-05-13 15:51:00,
2013-05-13 11:06:00,70.1,48.0,29.83,SE,139,6.0,17.0,45,0.00,,,0.00,weatherlink.com 1.10,2013-05-13 16:06:00,
2013-05-13 11:21:00,70.9,48.0,29.82,SSE,149,12.0,19.0,44,0.00,,,0.00,weatherlink.com 1.10,2013-05-13 16:21:00,
2013-05-13 11:36:00,71.6,47.0,29.82,SSE,158,9.0,18.0,42,0.00,,,0.00,weatherlink.com 1.10,2013-05-13 16:36:00,
2013-05-13 11:51:00,72.7,48.0,29.81,SSE,153,11.0,18.0,41,0.00,,,0.00,weatherlink.com 1.10,2013-05-13 16:51:00,
2013-05-13 12:07:00,74.3,48.0,29.81,SSE,155,9.0,15.0,40,0.00,,,0.00,weatherlink.com 1.10,2013-05-13 17:07:00,
2013-05-13 12:22:00,75.0,48.0,29.80,SSE,156,17.0,19.0,39,0.00,,,0.00,weatherlink.com 1.10,2013-05-13 17:22:00,
2013-05-13 12:37:00,75.6,48.0,29.79,South,172,8.0,20.0,38,0.00,,,0.00,weatherlink.com 1.10,2013-05-13 17:37:00,
2013-05-13 12:52:00,76.1,48.0,29.78,SSE,149,9.0,19.0,37,0.00,,,0.00,weatherlink.com 1.10,2013-05-13 17:52:00,
2013-05-13 13:07:00,77.0,49.0,29.78,SE,125,16.0,20.0,38,0.00,,,0.00,weatherlink.com 1.10,2013-05-13 18:07:00,
2013-05-13 13:22:00,78.2,49.0,29.77,SSE,156,5.0,18.0,36,0.00,,,0.00,weatherlink.com 1.10,2013-05-13 18:22:00,
2013-05-13 13:37:00,78.7,48.0,29.76,South,174,19.0,19.0,34,0.00,,,0.00,weatherlink.com 1.10,2013-05-13 18:37:00,
2013-05-13 13:52:00,79.4,48.0,29.75,South,177,6.0,17.0,33,0.00,,,0.00,weatherlink.com 1.10,2013-05-13 18:52:00,
2013-05-13 14:07:00,79.8,49.0,29.74,SSE,162,14.0,23.0,34,0.00,,,0.00,weatherlink.com 1.10,2013-05-13 19:07:00,
2013-05-13 14:22:00,80.8,47.0,29.75,South,172,8.0,17.0,31,0.00,,,0.00,weatherlink.com 1.10,2013-05-13 19:22:00,
2013-05-13 14:37:00,81.2,46.0,29.74,SSW,198,13.0,19.0,29,0.00,,,0.00,weatherlink.com 1.10,2013-05-13 19:37:00,
2013-05-13 14:52:00,81.2,48.0,29.73,South,172,8.0,22.0,31,0.00,,,0.00,weatherlink.com 1.10,2013-05-13 19:52:00,
2013-05-13 15:07:00,81.4,45.0,29.73,WSW,239,11.0,19.0,28,0.00,,,0.00,weatherlink.com 1.10,2013-05-13 20:07:00,
2013-05-13 15:22:00,81.7,46.0,29.72,SW,216,10.0,19.0,29,0.00,,,0.00,weatherlink.com 1.10,2013-05-13 20:22:00,
2013-05-13 15:37:00,82.0,47.0,29.71,SE,141,11.0,19.0,29,0.00,,,0.00,weatherlink.com 1.10,2013-05-13 20:37:00,
2013-05-13 15:52:00,81.7,48.0,29.71,SSE,153,7.0,26.0,31,0.00,,,0.00,weatherlink.com 1.10,2013-05-13 20:52:00,
2013-05-13 16:07:00,82.0,48.0,29.70,South,186,12.0,22.0,30,0.00,,,0.00,weatherlink.com 1.10,2013-05-13 21:07:00,
2013-05-13 16:22:00,82.9,48.0,29.69,East,96,15.0,16.0,30,0.00,,,0.00,weatherlink.com 1.10,2013-05-13 21:22:00,
2013-05-13 16:37:00,82.9,47.0,29.69,South,181,9.0,22.0,28,0.00,,,0.00,weatherlink.com 1.10,2013-05-13 21:37:00,
2013-05-13 16:52:00,82.8,47.0,29.68,SSE,156,8.0,21.0,29,0.00,,,0.00,weatherlink.com 1.10,2013-05-13 21:52:00,
2013-05-13 17:07:00,83.7,47.0,29.67,WSW,238,15.0,19.0,28,0.00,,,0.00,weatherlink.com 1.10,2013-05-13 22:07:00,
2013-05-13 17:22:00,83.6,46.0,29.67,SSE,150,16.0,21.0,27,0.00,,,0.00,weatherlink.com 1.10,2013-05-13 22:22:00,
2013-05-13 17:37:00,83.8,46.0,29.67,SSE,166,12.0,16.0,27,0.00,,,0.00,weatherlink.com 1.10,2013-05-13 22:37:00,
2013-05-13 17:52:00,83.9,47.0,29.67,SSE,149,5.0,19.0,28,0.00,,,0.00,weatherlink.com 1.10,2013-05-13 22:52:00,
2013-05-13 18:07:00,83.7,48.0,29.66,WSW,239,9.0,16.0,29,0.00,,,0.00,weatherlink.com 1.10,2013-05-13 23:07:00,
2013-05-13 18:23:00,83.4,49.0,29.65,SE,129,9.0,16.0,30,0.00,,,0.00,weatherlink.com 1.10,2013-05-13 23:23:00,
2013-05-13 18:38:00,83.1,49.0,29.65,SSE,155,3.0,15.0,31,0.00,,,0.00,weatherlink.com 1.10,2013-05-13 23:38:00,
2013-05-13 18:53:00,82.9,49.0,29.65,ENE,78,7.0,15.0,31,0.00,,,0.00,weatherlink.com 1.10,2013-05-13 23:53:00,
2013-05-13 19:08:00,82.5,50.0,29.64,SSE,148,6.0,14.0,32,0.00,,,0.00,weatherlink.com 1.10,2013-05-14 00:08:00,
2013-05-13 19:23:00,82.0,51.0,29.64,SSE,167,11.0,15.0,34,0.00,,,0.00,weatherlink.com 1.10,2013-05-14 00:23:00,
2013-05-13 19:38:00,81.4,50.0,29.64,SW,224,10.0,12.0,34,0.00,,,0.00,weatherlink.com 1.10,2013-05-14 00:38:00,
2013-05-13 19:53:00,80.5,50.0,29.63,South,170,5.0,12.0,35,0.00,,,0.00,weatherlink.com 1.10,2013-05-14 00:53:00,
2013-05-13 20:08:00,79.5,51.0,29.63,SSE,149,5.0,13.0,37,0.00,,,0.00,weatherlink.com 1.10,2013-05-14 01:08:00,
2013-05-13 20:23:00,78.5,51.0,29.63,SE,142,3.0,10.0,38,0.00,,,0.00,weatherlink.com 1.10,2013-05-14 01:23:00,
2013-05-13 20:38:00,77.3,51.0,29.63,SSE,163,3.0,9.0,40,0.00,,,0.00,weatherlink.com 1.10,2013-05-14 01:38:00,
2013-05-13 20:53:00,76.4,52.0,29.63,SSW,207,6.0,9.0,42,0.00,,,0.00,weatherlink.com 1.10,2013-05-14 01:53:00,
2013-05-13 21:08:00,75.7,52.0,29.63,West,274,6.0,9.0,44,0.00,,,0.00,weatherlink.com 1.10,2013-05-14 02:08:00,
2013-05-13 21:23:00,74.9,53.0,29.63,SSE,167,5.0,8.0,46,0.00,,,0.00,weatherlink.com 1.10,2013-05-14 02:23:00,
2013-05-13 21:38:00,74.4,53.0,29.63,SSE,158,4.0,9.0,47,0.00,,,0.00,weatherlink.com 1.10,2013-05-14 02:38:00,
2013-05-13 21:53:00,74.0,53.0,29.63,South,180,6.0,8.0,48,0.00,,,0.00,weatherlink.com 1.10,2013-05-14 02:53:00,
2013-05-13 22:08:00,73.7,53.0,29.63,South,181,2.0,8.0,49,0.00,,,0.00,weatherlink.com 1.10,2013-05-14 03:08:00,
2013-05-13 22:23:00,73.1,53.0,29.63,SSW,198,5.0,8.0,50,0.00,,,0.00,weatherlink.com 1.10,2013-05-14 03:23:00,
2013-05-13 22:38:00,72.3,54.0,29.63,SE,137,1.0,5.0,52,0.00,,,0.00,weatherlink.com 1.10,2013-05-14 03:38:00,
2013-05-13 22:53:00,71.8,54.0,29.63,South,174,3.0,6.0,53,0.00,,,0.00,weatherlink.com 1.10,2013-05-14 03:53:00,
2013-05-13 23:08:00,71.2,54.0,29.63,NNW,332,0.0,4.0,54,0.00,,,0.00,weatherlink.com 1.10,2013-05-14 04:08:00,
2013-05-13 23:23:00,70.7,54.0,29.64,WSW,239,0.0,2.0,55,0.00,,,0.00,weatherlink.com 1.10,2013-05-14 04:23:00,
2013-05-13 23:38:00,69.6,54.0,29.63,SSE,153,0.0,1.0,57,0.00,,,0.00,weatherlink.com 1.10,2013-05-14 04:38:00,
2013-05-13 23:53:00,69.3,54.0,29.63,SSE,166,1.0,2.0,58,0.00,,,0.00,weatherlink.com 1.10,2013-05-14 04:53:00,